CheckWX is a tool to help pilots better visualize weather data.  It is not intended as a substitute for an official pre-flight weather briefing.

19:31:35 UTC

KGJT METAR
Grand Junction Regional Airport
Grand Junction, Colorado, USA
Current

16 mins ago

KGJT 221916Z 27005KT 10SM BKN011 BKN016 OVC075 01/M02 A2974 RMK AO2 SNE1859 P0000 T00061017
Observed
Feb-22 @ 19:16 UTC
Wind
  • 270° at 5 KTS
Visibility
10 SM
Flight Rules
MVFR
Cloud Levels
  • Broken at 1,100' AGL
  • Broken at 1,600' AGL
  • Overcast at 7,500' AGL
Temperature
C / 34°F
Dewpoint
-2°C / 28°F
Humidity
81%
Altimeter
29.74" Hg
Pressure
1007.12 hPa
Current Rain
0.01"
Previous

39 mins ago

KGJT 221853Z 27003KT 6SM -SN BR FEW009 BKN025 OVC085 01/M02 A2974 RMK AO2 SLP080 P0000 T00061017
Observed
Feb-22 @ 18:53 UTC
Wind
  • 270° at 3 KTS
Visibility
6 SM
Flight Rules
MVFR
Conditions
Light Snow, Mist
Cloud Levels
  • Few at 900' AGL
  • Broken at 2,500' AGL
  • Overcast at 8,500' AGL
Temperature
C / 34°F
Dewpoint
-2°C / 28°F
Humidity
81%
Altimeter
29.74" Hg
Pressure
1008 hPa
Current Rain
0.01"
Previous

50 mins ago

KGJT 221842Z VRB03KT 3SM -SN BR FEW009 BKN025 OVC032 00/M02 A2975 RMK AO2 P0000 T00001017
Observed
Feb-22 @ 18:42 UTC
Wind
  • Variable at 3 KTS
Visibility
3 SM
Flight Rules
MVFR
Conditions
Light Snow, Mist
Cloud Levels
  • Few at 900' AGL
  • Broken at 2,500' AGL
  • Overcast at 3,200' AGL
Temperature
C / 32°F
Dewpoint
-2°C / 28°F
Humidity
87%
Altimeter
29.75" Hg
Pressure
1007.42 hPa
Current Rain
0.01"